sensor_id;sensor_type;location;lat;lon;timestamp;P1;durP1;ratioP1;P2;durP2;ratioP2
31782;SDS011;18351;47.560;9.708;2023-11-19T00:00:10;2.10;;;1.48;;
31782;SDS011;18351;47.560;9.708;2023-11-19T00:02:37;1.90;;;1.50;;
31782;SDS011;18351;47.560;9.708;2023-11-19T00:05:04;1.80;;;1.70;;
31782;SDS011;18351;47.560;9.708;2023-11-19T00:07:31;1.77;;;1.67;;
31782;SDS011;18351;47.560;9.708;2023-11-19T00:09:57;3.50;;;2.03;;
31782;SDS011;18351;47.560;9.708;2023-11-19T00:12:22;2.00;;;1.50;;
31782;SDS011;18351;47.560;9.708;2023-11-19T00:14:49;2.58;;;1.45;;
31782;SDS011;18351;47.560;9.708;2023-11-19T00:17:15;3.42;;;2.15;;
31782;SDS011;18351;47.560;9.708;2023-11-19T00:19:41;2.03;;;1.75;;
31782;SDS011;18351;47.560;9.708;2023-11-19T00:22:07;1.88;;;1.65;;
31782;SDS011;18351;47.560;9.708;2023-11-19T00:24:32;2.97;;;1.98;;
31782;SDS011;18351;47.560;9.708;2023-11-19T00:26:58;2.83;;;1.80;;
31782;SDS011;18351;47.560;9.708;2023-11-19T00:29:23;2.50;;;2.08;;
31782;SDS011;18351;47.560;9.708;2023-11-19T00:31:49;3.15;;;1.90;;
31782;SDS011;18351;47.560;9.708;2023-11-19T00:34:15;1.95;;;1.60;;
31782;SDS011;18351;47.560;9.708;2023-11-19T00:36:40;3.92;;;2.28;;
31782;SDS011;18351;47.560;9.708;2023-11-19T00:39:06;1.60;;;1.50;;
31782;SDS011;18351;47.560;9.708;2023-11-19T00:41:31;2.35;;;1.98;;
31782;SDS011;18351;47.560;9.708;2023-11-19T00:43:57;4.50;;;1.80;;
31782;SDS011;18351;47.560;9.708;2023-11-19T00:46:22;2.95;;;2.05;;
31782;SDS011;18351;47.560;9.708;2023-11-19T00:48:48;1.60;;;1.50;;
31782;SDS011;18351;47.560;9.708;2023-11-19T00:51:14;5.28;;;1.50;;
31782;SDS011;18351;47.560;9.708;2023-11-19T00:53:39;3.90;;;1.70;;
31782;SDS011;18351;47.560;9.708;2023-11-19T00:56:05;2.47;;;2.13;;
31782;SDS011;18351;47.560;9.708;2023-11-19T00:58:31;2.15;;;1.58;;
31782;SDS011;18351;47.560;9.708;2023-11-19T01:00:57;1.55;;;1.20;;
31782;SDS011;18351;47.560;9.708;2023-11-19T01:03:22;1.60;;;1.50;;
31782;SDS011;18351;47.560;9.708;2023-11-19T01:05:48;4.07;;;1.60;;
31782;SDS011;18351;47.560;9.708;2023-11-19T01:08:14;1.65;;;1.40;;
31782;SDS011;18351;47.560;9.708;2023-11-19T01:10:40;2.75;;;1.40;;
31782;SDS011;18351;47.560;9.708;2023-11-19T01:13:06;1.60;;;1.30;;
31782;SDS011;18351;47.560;9.708;2023-11-19T01:15:32;1.85;;;1.48;;
31782;SDS011;18351;47.560;9.708;2023-11-19T01:17:58;1.88;;;1.30;;
31782;SDS011;18351;47.560;9.708;2023-11-19T01:20:23;3.47;;;1.40;;
31782;SDS011;18351;47.560;9.708;2023-11-19T01:22:49;1.85;;;1.20;;
31782;SDS011;18351;47.560;9.708;2023-11-19T01:25:15;2.78;;;1.40;;
31782;SDS011;18351;47.560;9.708;2023-11-19T01:27:40;1.83;;;1.30;;
31782;SDS011;18351;47.560;9.708;2023-11-19T01:30:06;1.50;;;1.40;;
31782;SDS011;18351;47.560;9.708;2023-11-19T01:32:36;1.85;;;1.40;;
31782;SDS011;18351;47.560;9.708;2023-11-19T01:35:02;1.92;;;1.80;;
31782;SDS011;18351;47.560;9.708;2023-11-19T01:37:29;1.80;;;1.60;;
31782;SDS011;18351;47.560;9.708;2023-11-19T01:39:54;1.70;;;1.55;;
31782;SDS011;18351;47.560;9.708;2023-11-19T01:42:20;2.33;;;1.60;;
31782;SDS011;18351;47.560;9.708;2023-11-19T01:44:58;1.80;;;1.45;;
31782;SDS011;18351;47.560;9.708;2023-11-19T01:47:27;2.58;;;1.52;;
31782;SDS011;18351;47.560;9.708;2023-11-19T01:49:55;5.38;;;1.63;;
31782;SDS011;18351;47.560;9.708;2023-11-19T01:52:22;2.40;;;1.25;;
31782;SDS011;18351;47.560;9.708;2023-11-19T01:54:48;3.33;;;1.85;;
31782;SDS011;18351;47.560;9.708;2023-11-19T01:57:14;2.55;;;1.70;;
31782;SDS011;18351;47.560;9.708;2023-11-19T01:59:40;1.67;;;1.45;;
31782;SDS011;18351;47.560;9.708;2023-11-19T02:02:07;5.70;;;1.50;;
31782;SDS011;18351;47.560;9.708;2023-11-19T02:04:32;2.55;;;1.67;;
31782;SDS011;18351;47.560;9.708;2023-11-19T02:06:59;1.70;;;1.60;;
31782;SDS011;18351;47.560;9.708;2023-11-19T02:09:25;3.97;;;2.00;;
31782;SDS011;18351;47.560;9.708;2023-11-19T02:11:52;1.50;;;1.40;;
31782;SDS011;18351;47.560;9.708;2023-11-19T02:14:18;1.73;;;1.40;;
31782;SDS011;18351;47.560;9.708;2023-11-19T02:16:48;1.92;;;1.50;;
31782;SDS011;18351;47.560;9.708;2023-11-19T02:19:14;1.58;;;1.40;;
31782;SDS011;18351;47.560;9.708;2023-11-19T02:21:40;1.60;;;1.40;;
31782;SDS011;18351;47.560;9.708;2023-11-19T02:24:07;1.20;;;1.10;;
31782;SDS011;18351;47.560;9.708;2023-11-19T02:26:46;4.15;;;1.33;;
31782;SDS011;18351;47.560;9.708;2023-11-19T02:29:13;1.40;;;1.17;;
31782;SDS011;18351;47.560;9.708;2023-11-19T02:31:38;2.67;;;1.30;;
31782;SDS011;18351;47.560;9.708;2023-11-19T02:34:04;1.30;;;1.20;;
31782;SDS011;18351;47.560;9.708;2023-11-19T02:36:30;2.15;;;1.40;;
31782;SDS011;18351;47.560;9.708;2023-11-19T02:38:57;1.92;;;1.33;;
31782;SDS011;18351;47.560;9.708;2023-11-19T02:41:23;2.65;;;1.30;;
31782;SDS011;18351;47.560;9.708;2023-11-19T02:43:49;2.35;;;1.70;;
31782;SDS011;18351;47.560;9.708;2023-11-19T02:46:15;1.30;;;1.20;;
31782;SDS011;18351;47.560;9.708;2023-11-19T02:48:42;1.20;;;1.08;;
31782;SDS011;18351;47.560;9.708;2023-11-19T02:51:09;1.70;;;1.20;;
31782;SDS011;18351;47.560;9.708;2023-11-19T02:53:35;1.52;;;1.40;;
31782;SDS011;18351;47.560;9.708;2023-11-19T02:56:02;1.42;;;1.20;;
31782;SDS011;18351;47.560;9.708;2023-11-19T02:58:36;2.42;;;1.40;;
31782;SDS011;18351;47.560;9.708;2023-11-19T03:01:02;1.90;;;1.35;;
31782;SDS011;18351;47.560;9.708;2023-11-19T03:03:37;1.20;;;1.10;;
31782;SDS011;18351;47.560;9.708;2023-11-19T03:06:05;1.98;;;1.30;;
31782;SDS011;18351;47.560;9.708;2023-11-19T03:08:31;1.42;;;1.17;;
31782;SDS011;18351;47.560;9.708;2023-11-19T03:11:00;2.03;;;1.27;;
31782;SDS011;18351;47.560;9.708;2023-11-19T03:13:26;1.40;;;1.30;;
31782;SDS011;18351;47.560;9.708;2023-11-19T03:15:52;1.77;;;1.30;;
31782;SDS011;18351;47.560;9.708;2023-11-19T03:18:18;2.05;;;1.77;;
31782;SDS011;18351;47.560;9.708;2023-11-19T03:20:45;5.30;;;1.50;;
31782;SDS011;18351;47.560;9.708;2023-11-19T03:23:11;1.23;;;1.13;;
31782;SDS011;18351;47.560;9.708;2023-11-19T03:25:37;3.60;;;1.25;;
31782;SDS011;18351;47.560;9.708;2023-11-19T03:28:03;2.10;;;1.60;;
31782;SDS011;18351;47.560;9.708;2023-11-19T03:30:29;1.42;;;1.30;;
31782;SDS011;18351;47.560;9.708;2023-11-19T03:32:56;1.67;;;1.40;;
31782;SDS011;18351;47.560;9.708;2023-11-19T03:35:22;2.85;;;1.42;;
31782;SDS011;18351;47.560;9.708;2023-11-19T03:37:48;4.10;;;1.58;;
31782;SDS011;18351;47.560;9.708;2023-11-19T03:40:14;1.98;;;1.30;;
31782;SDS011;18351;47.560;9.708;2023-11-19T03:42:40;2.60;;;1.27;;
31782;SDS011;18351;47.560;9.708;2023-11-19T03:45:06;1.50;;;1.30;;
31782;SDS011;18351;47.560;9.708;2023-11-19T03:47:35;1.25;;;1.15;;
31782;SDS011;18351;47.560;9.708;2023-11-19T03:50:00;1.33;;;1.23;;
31782;SDS011;18351;47.560;9.708;2023-11-19T03:52:27;2.88;;;1.58;;
31782;SDS011;18351;47.560;9.708;2023-11-19T03:54:53;3.28;;;1.35;;
31782;SDS011;18351;47.560;9.708;2023-11-19T03:57:20;2.28;;;1.45;;
31782;SDS011;18351;47.560;9.708;2023-11-19T03:59:46;1.48;;;1.30;;
31782;SDS011;18351;47.560;9.708;2023-11-19T04:02:11;1.70;;;1.30;;
31782;SDS011;18351;47.560;9.708;2023-11-19T04:04:37;1.42;;;1.15;;
31782;SDS011;18351;47.560;9.708;2023-11-19T04:07:04;1.73;;;1.35;;
31782;SDS011;18351;47.560;9.708;2023-11-19T04:09:30;3.60;;;1.40;;
31782;SDS011;18351;47.560;9.708;2023-11-19T04:11:56;1.40;;;1.30;;
31782;SDS011;18351;47.560;9.708;2023-11-19T04:14:22;1.60;;;1.40;;
31782;SDS011;18351;47.560;9.708;2023-11-19T04:16:47;1.85;;;1.10;;
31782;SDS011;18351;47.560;9.708;2023-11-19T04:19:13;2.35;;;1.23;;
31782;SDS011;18351;47.560;9.708;2023-11-19T04:21:41;2.45;;;1.20;;
31782;SDS011;18351;47.560;9.708;2023-11-19T04:24:08;4.13;;;1.30;;
31782;SDS011;18351;47.560;9.708;2023-11-19T04:26:39;2.63;;;1.40;;
31782;SDS011;18351;47.560;9.708;2023-11-19T04:29:06;1.40;;;1.20;;
31782;SDS011;18351;47.560;9.708;2023-11-19T04:31:33;1.23;;;1.10;;
31782;SDS011;18351;47.560;9.708;2023-11-19T04:33:59;2.50;;;1.40;;
31782;SDS011;18351;47.560;9.708;2023-11-19T04:36:25;1.40;;;1.02;;
31782;SDS011;18351;47.560;9.708;2023-11-19T04:38:51;1.80;;;1.30;;
31782;SDS011;18351;47.560;9.708;2023-11-19T04:41:16;1.55;;;1.40;;
31782;SDS011;18351;47.560;9.708;2023-11-19T04:43:42;4.03;;;1.40;;
31782;SDS011;18351;47.560;9.708;2023-11-19T04:46:09;1.23;;;1.13;;
31782;SDS011;18351;47.560;9.708;2023-11-19T04:48:35;1.95;;;1.50;;
31782;SDS011;18351;47.560;9.708;2023-11-19T04:51:00;1.95;;;1.27;;
31782;SDS011;18351;47.560;9.708;2023-11-19T04:53:26;3.20;;;1.52;;
31782;SDS011;18351;47.560;9.708;2023-11-19T04:55:51;1.88;;;1.30;;
31782;SDS011;18351;47.560;9.708;2023-11-19T04:58:17;4.10;;;1.40;;
31782;SDS011;18351;47.560;9.708;2023-11-19T05:00:44;2.45;;;1.45;;
31782;SDS011;18351;47.560;9.708;2023-11-19T05:03:10;1.65;;;1.52;;
31782;SDS011;18351;47.560;9.708;2023-11-19T05:05:36;1.85;;;1.50;;
31782;SDS011;18351;47.560;9.708;2023-11-19T05:08:01;3.95;;;1.45;;
31782;SDS011;18351;47.560;9.708;2023-11-19T05:10:27;2.05;;;1.85;;
31782;SDS011;18351;47.560;9.708;2023-11-19T05:12:53;2.67;;;1.40;;
31782;SDS011;18351;47.560;9.708;2023-11-19T05:15:21;4.07;;;1.55;;
31782;SDS011;18351;47.560;9.708;2023-11-19T05:17:46;2.90;;;1.63;;
31782;SDS011;18351;47.560;9.708;2023-11-19T05:20:12;1.98;;;1.60;;
31782;SDS011;18351;47.560;9.708;2023-11-19T05:22:41;2.13;;;1.52;;
31782;SDS011;18351;47.560;9.708;2023-11-19T05:25:08;2.30;;;1.67;;
31782;SDS011;18351;47.560;9.708;2023-11-19T05:27:35;2.25;;;1.60;;
31782;SDS011;18351;47.560;9.708;2023-11-19T05:30:02;3.67;;;1.92;;
31782;SDS011;18351;47.560;9.708;2023-11-19T05:35:01;2.63;;;2.05;;
31782;SDS011;18351;47.560;9.708;2023-11-19T05:37:26;3.97;;;1.67;;
31782;SDS011;18351;47.560;9.708;2023-11-19T05:39:52;2.03;;;1.83;;
31782;SDS011;18351;47.560;9.708;2023-11-19T05:42:18;2.75;;;1.88;;
31782;SDS011;18351;47.560;9.708;2023-11-19T05:44:43;2.92;;;1.90;;
31782;SDS011;18351;47.560;9.708;2023-11-19T05:47:09;4.75;;;2.47;;
31782;SDS011;18351;47.560;9.708;2023-11-19T05:49:34;2.53;;;1.67;;
31782;SDS011;18351;47.560;9.708;2023-11-19T05:52:00;1.95;;;1.75;;
31782;SDS011;18351;47.560;9.708;2023-11-19T05:54:28;2.28;;;1.58;;
31782;SDS011;18351;47.560;9.708;2023-11-19T05:56:53;2.17;;;1.40;;
31782;SDS011;18351;47.560;9.708;2023-11-19T05:59:19;2.13;;;1.27;;
31782;SDS011;18351;47.560;9.708;2023-11-19T06:01:45;2.40;;;1.60;;
31782;SDS011;18351;47.560;9.708;2023-11-19T06:04:11;3.08;;;1.65;;
31782;SDS011;18351;47.560;9.708;2023-11-19T06:06:37;4.40;;;1.30;;
31782;SDS011;18351;47.560;9.708;2023-11-19T06:09:03;3.28;;;1.40;;
31782;SDS011;18351;47.560;9.708;2023-11-19T06:11:29;1.55;;;1.25;;
31782;SDS011;18351;47.560;9.708;2023-11-19T06:13:54;1.50;;;1.33;;
31782;SDS011;18351;47.560;9.708;2023-11-19T06:16:21;1.85;;;1.35;;
31782;SDS011;18351;47.560;9.708;2023-11-19T06:18:46;2.75;;;1.65;;
31782;SDS011;18351;47.560;9.708;2023-11-19T06:21:12;2.90;;;1.50;;
31782;SDS011;18351;47.560;9.708;2023-11-19T06:23:38;2.00;;;1.67;;
31782;SDS011;18351;47.560;9.708;2023-11-19T06:26:03;2.38;;;1.70;;
31782;SDS011;18351;47.560;9.708;2023-11-19T06:28:30;1.70;;;1.60;;
31782;SDS011;18351;47.560;9.708;2023-11-19T06:30:56;2.67;;;2.00;;
31782;SDS011;18351;47.560;9.708;2023-11-19T06:33:22;4.25;;;2.67;;
31782;SDS011;18351;47.560;9.708;2023-11-19T06:35:49;4.15;;;2.28;;
31782;SDS011;18351;47.560;9.708;2023-11-19T06:38:14;9.23;;;2.33;;
31782;SDS011;18351;47.560;9.708;2023-11-19T06:40:40;4.18;;;2.83;;
31782;SDS011;18351;47.560;9.708;2023-11-19T06:43:06;3.45;;;2.80;;
31782;SDS011;18351;47.560;9.708;2023-11-19T06:45:34;3.55;;;2.58;;
31782;SDS011;18351;47.560;9.708;2023-11-19T06:48:01;3.53;;;2.83;;
31782;SDS011;18351;47.560;9.708;2023-11-19T06:50:29;2.92;;;2.38;;
31782;SDS011;18351;47.560;9.708;2023-11-19T06:52:54;4.07;;;2.10;;
31782;SDS011;18351;47.560;9.708;2023-11-19T06:55:20;2.95;;;2.22;;
31782;SDS011;18351;47.560;9.708;2023-11-19T06:57:45;3.22;;;2.38;;
31782;SDS011;18351;47.560;9.708;2023-11-19T07:00:11;2.95;;;2.20;;
31782;SDS011;18351;47.560;9.708;2023-11-19T07:02:37;3.53;;;2.75;;
31782;SDS011;18351;47.560;9.708;2023-11-19T07:05:02;4.38;;;2.53;;
31782;SDS011;18351;47.560;9.708;2023-11-19T07:07:30;3.33;;;2.65;;
31782;SDS011;18351;47.560;9.708;2023-11-19T07:09:57;3.75;;;2.80;;
31782;SDS011;18351;47.560;9.708;2023-11-19T07:12:23;2.85;;;2.60;;
31782;SDS011;18351;47.560;9.708;2023-11-19T07:14:51;5.10;;;2.55;;
31782;SDS011;18351;47.560;9.708;2023-11-19T07:17:18;4.55;;;2.70;;
31782;SDS011;18351;47.560;9.708;2023-11-19T07:19:43;4.55;;;3.03;;
31782;SDS011;18351;47.560;9.708;2023-11-19T07:22:09;2.88;;;2.47;;
31782;SDS011;18351;47.560;9.708;2023-11-19T07:24:36;4.10;;;2.97;;
31782;SDS011;18351;47.560;9.708;2023-11-19T07:27:05;3.95;;;2.60;;
31782;SDS011;18351;47.560;9.708;2023-11-19T07:29:31;4.90;;;2.97;;
31782;SDS011;18351;47.560;9.708;2023-11-19T07:31:57;3.83;;;2.50;;
31782;SDS011;18351;47.560;9.708;2023-11-19T07:34:23;3.42;;;2.65;;
31782;SDS011;18351;47.560;9.708;2023-11-19T07:36:49;5.22;;;2.97;;
31782;SDS011;18351;47.560;9.708;2023-11-19T07:39:15;2.88;;;2.55;;
31782;SDS011;18351;47.560;9.708;2023-11-19T07:41:41;2.88;;;2.67;;
31782;SDS011;18351;47.560;9.708;2023-11-19T07:44:06;6.32;;;3.92;;
31782;SDS011;18351;47.560;9.708;2023-11-19T07:46:32;5.05;;;3.15;;
31782;SDS011;18351;47.560;9.708;2023-11-19T07:48:58;3.80;;;2.75;;
31782;SDS011;18351;47.560;9.708;2023-11-19T07:51:23;4.88;;;3.22;;
31782;SDS011;18351;47.560;9.708;2023-11-19T07:53:49;4.13;;;2.85;;
31782;SDS011;18351;47.560;9.708;2023-11-19T07:56:14;3.88;;;2.60;;
31782;SDS011;18351;47.560;9.708;2023-11-19T07:58:40;3.58;;;2.63;;
31782;SDS011;18351;47.560;9.708;2023-11-19T08:01:06;5.32;;;2.53;;
31782;SDS011;18351;47.560;9.708;2023-11-19T08:03:31;3.60;;;2.75;;
31782;SDS011;18351;47.560;9.708;2023-11-19T08:05:59;2.83;;;2.45;;
31782;SDS011;18351;47.560;9.708;2023-11-19T08:08:25;2.22;;;2.00;;
31782;SDS011;18351;47.560;9.708;2023-11-19T08:10:50;3.65;;;2.78;;
31782;SDS011;18351;47.560;9.708;2023-11-19T08:13:17;2.50;;;2.30;;
31782;SDS011;18351;47.560;9.708;2023-11-19T08:15:43;3.10;;;2.70;;
31782;SDS011;18351;47.560;9.708;2023-11-19T08:18:09;3.47;;;2.70;;
31782;SDS011;18351;47.560;9.708;2023-11-19T08:20:34;4.72;;;2.72;;
31782;SDS011;18351;47.560;9.708;2023-11-19T08:23:01;3.38;;;2.25;;
31782;SDS011;18351;47.560;9.708;2023-11-19T08:25:28;2.53;;;2.28;;
31782;SDS011;18351;47.560;9.708;2023-11-19T08:27:54;4.65;;;3.10;;
31782;SDS011;18351;47.560;9.708;2023-11-19T08:30:19;3.85;;;3.20;;
31782;SDS011;18351;47.560;9.708;2023-11-19T08:32:45;3.00;;;2.70;;
31782;SDS011;18351;47.560;9.708;2023-11-19T08:35:11;4.25;;;3.05;;
31782;SDS011;18351;47.560;9.708;2023-11-19T08:37:36;3.72;;;2.97;;
31782;SDS011;18351;47.560;9.708;2023-11-19T08:40:03;4.43;;;2.80;;
31782;SDS011;18351;47.560;9.708;2023-11-19T08:42:29;4.72;;;3.63;;
31782;SDS011;18351;47.560;9.708;2023-11-19T08:44:55;3.30;;;2.60;;
31782;SDS011;18351;47.560;9.708;2023-11-19T08:47:21;3.75;;;2.97;;
31782;SDS011;18351;47.560;9.708;2023-11-19T08:49:48;3.40;;;2.55;;
31782;SDS011;18351;47.560;9.708;2023-11-19T08:52:17;3.75;;;2.53;;
31782;SDS011;18351;47.560;9.708;2023-11-19T08:54:43;2.97;;;2.50;;
31782;SDS011;18351;47.560;9.708;2023-11-19T08:57:08;3.25;;;2.60;;
31782;SDS011;18351;47.560;9.708;2023-11-19T08:59:34;18.98;;;10.20;;
31782;SDS011;18351;47.560;9.708;2023-11-19T09:02:00;4.55;;;3.13;;
31782;SDS011;18351;47.560;9.708;2023-11-19T09:04:25;2.95;;;2.50;;
31782;SDS011;18351;47.560;9.708;2023-11-19T09:06:51;3.83;;;2.72;;
31782;SDS011;18351;47.560;9.708;2023-11-19T09:09:16;3.88;;;2.55;;
31782;SDS011;18351;47.560;9.708;2023-11-19T09:11:42;2.33;;;2.10;;
31782;SDS011;18351;47.560;9.708;2023-11-19T09:14:08;4.78;;;2.50;;
31782;SDS011;18351;47.560;9.708;2023-11-19T09:16:33;4.30;;;3.55;;
31782;SDS011;18351;47.560;9.708;2023-11-19T09:18:59;5.82;;;3.53;;
31782;SDS011;18351;47.560;9.708;2023-11-19T09:21:25;5.00;;;3.92;;
31782;SDS011;18351;47.560;9.708;2023-11-19T09:23:51;3.85;;;3.25;;
31782;SDS011;18351;47.560;9.708;2023-11-19T09:26:18;2.95;;;2.50;;
31782;SDS011;18351;47.560;9.708;2023-11-19T09:28:43;6.03;;;2.75;;
31782;SDS011;18351;47.560;9.708;2023-11-19T09:31:18;3.63;;;2.97;;
31782;SDS011;18351;47.560;9.708;2023-11-19T09:33:43;5.97;;;3.03;;
31782;SDS011;18351;47.560;9.708;2023-11-19T09:36:13;4.38;;;3.10;;
31782;SDS011;18351;47.560;9.708;2023-11-19T09:38:42;3.85;;;3.25;;
31782;SDS011;18351;47.560;9.708;2023-11-19T09:41:10;4.78;;;3.25;;
31782;SDS011;18351;47.560;9.708;2023-11-19T09:43:41;3.80;;;2.97;;
31782;SDS011;18351;47.560;9.708;2023-11-19T09:46:10;5.75;;;3.10;;
31782;SDS011;18351;47.560;9.708;2023-11-19T09:48:40;4.07;;;3.45;;
31782;SDS011;18351;47.560;9.708;2023-11-19T09:51:07;7.60;;;3.47;;
31782;SDS011;18351;47.560;9.708;2023-11-19T09:53:35;6.50;;;3.97;;
31782;SDS011;18351;47.560;9.708;2023-11-19T09:56:02;4.28;;;3.63;;
31782;SDS011;18351;47.560;9.708;2023-11-19T09:58:28;4.82;;;4.25;;
31782;SDS011;18351;47.560;9.708;2023-11-19T10:00:55;6.20;;;5.28;;
31782;SDS011;18351;47.560;9.708;2023-11-19T10:03:24;6.78;;;4.85;;
31782;SDS011;18351;47.560;9.708;2023-11-19T10:05:51;6.93;;;4.22;;
31782;SDS011;18351;47.560;9.708;2023-11-19T10:08:18;5.35;;;3.90;;
31782;SDS011;18351;47.560;9.708;2023-11-19T10:10:43;3.83;;;3.40;;
31782;SDS011;18351;47.560;9.708;2023-11-19T10:13:09;4.93;;;4.15;;
31782;SDS011;18351;47.560;9.708;2023-11-19T10:15:56;5.63;;;4.38;;
31782;SDS011;18351;47.560;9.708;2023-11-19T10:18:25;4.78;;;3.47;;
31782;SDS011;18351;47.560;9.708;2023-11-19T10:20:51;7.38;;;3.55;;
31782;SDS011;18351;47.560;9.708;2023-11-19T10:23:17;4.47;;;3.45;;
31782;SDS011;18351;47.560;9.708;2023-11-19T10:25:43;4.95;;;3.25;;
31782;SDS011;18351;47.560;9.708;2023-11-19T10:28:09;3.60;;;3.05;;
31782;SDS011;18351;47.560;9.708;2023-11-19T10:30:34;3.70;;;2.63;;
31782;SDS011;18351;47.560;9.708;2023-11-19T10:35:33;9.63;;;3.35;;
31782;SDS011;18351;47.560;9.708;2023-11-19T10:38:00;6.43;;;3.20;;
31782;SDS011;18351;47.560;9.708;2023-11-19T10:40:41;3.25;;;2.95;;
31782;SDS011;18351;47.560;9.708;2023-11-19T10:43:06;3.55;;;2.90;;
31782;SDS011;18351;47.560;9.708;2023-11-19T10:45:33;3.10;;;2.67;;
31782;SDS011;18351;47.560;9.708;2023-11-19T10:48:00;3.03;;;2.60;;
31782;SDS011;18351;47.560;9.708;2023-11-19T10:50:29;5.13;;;3.22;;
31782;SDS011;18351;47.560;9.708;2023-11-19T10:52:58;3.10;;;2.80;;
31782;SDS011;18351;47.560;9.708;2023-11-19T10:55:29;3.75;;;2.65;;
31782;SDS011;18351;47.560;9.708;2023-11-19T10:57:58;3.08;;;2.78;;
31782;SDS011;18351;47.560;9.708;2023-11-19T11:00:24;5.03;;;3.08;;
31782;SDS011;18351;47.560;9.708;2023-11-19T11:02:53;8.85;;;4.28;;
31782;SDS011;18351;47.560;9.708;2023-11-19T11:05:24;3.50;;;2.90;;
31782;SDS011;18351;47.560;9.708;2023-11-19T11:07:51;5.78;;;3.25;;
31782;SDS011;18351;47.560;9.708;2023-11-19T11:10:20;4.25;;;3.08;;
31782;SDS011;18351;47.560;9.708;2023-11-19T11:12:51;4.75;;;3.50;;
31782;SDS011;18351;47.560;9.708;2023-11-19T11:15:23;4.63;;;3.22;;
31782;SDS011;18351;47.560;9.708;2023-11-19T11:17:52;4.45;;;3.38;;
31782;SDS011;18351;47.560;9.708;2023-11-19T11:20:22;4.53;;;2.90;;
31782;SDS011;18351;47.560;9.708;2023-11-19T11:25:56;4.85;;;3.22;;
31782;SDS011;18351;47.560;9.708;2023-11-19T11:37:19;6.50;;;4.55;;
31782;SDS011;18351;47.560;9.708;2023-11-19T11:39:51;7.30;;;3.55;;
31782;SDS011;18351;47.560;9.708;2023-11-19T11:50:17;44.58;;;18.60;;
31782;SDS011;18351;47.560;9.708;2023-11-19T11:55:36;9.35;;;6.22;;
31782;SDS011;18351;47.560;9.708;2023-11-19T11:58:20;4.28;;;3.75;;
31782;SDS011;18351;47.560;9.708;2023-11-19T12:00:46;6.53;;;5.30;;
31782;SDS011;18351;47.560;9.708;2023-11-19T12:03:13;5.95;;;3.60;;
31782;SDS011;18351;47.560;9.708;2023-11-19T12:05:43;3.90;;;3.00;;
31782;SDS011;18351;47.560;9.708;2023-11-19T12:08:10;3.30;;;2.70;;
31782;SDS011;18351;47.560;9.708;2023-11-19T12:13:10;5.35;;;3.17;;
31782;SDS011;18351;47.560;9.708;2023-11-19T12:16:23;4.43;;;2.95;;
31782;SDS011;18351;47.560;9.708;2023-11-19T12:18:27;3.92;;;2.83;;
31782;SDS011;18351;47.560;9.708;2023-11-19T12:20:57;3.08;;;2.78;;
31782;SDS011;18351;47.560;9.708;2023-11-19T12:23:27;2.95;;;2.47;;
31782;SDS011;18351;47.560;9.708;2023-11-19T12:25:54;11.25;;;4.85;;
31782;SDS011;18351;47.560;9.708;2023-11-19T12:28:20;6.00;;;4.57;;
31782;SDS011;18351;47.560;9.708;2023-11-19T12:30:47;6.90;;;4.60;;
31782;SDS011;18351;47.560;9.708;2023-11-19T12:33:13;4.85;;;3.42;;
31782;SDS011;18351;47.560;9.708;2023-11-19T12:35:40;4.18;;;3.00;;
31782;SDS011;18351;47.560;9.708;2023-11-19T12:38:07;4.25;;;2.80;;
31782;SDS011;18351;47.560;9.708;2023-11-19T12:40:32;3.53;;;2.42;;
31782;SDS011;18351;47.560;9.708;2023-11-19T12:42:58;2.50;;;2.30;;
31782;SDS011;18351;47.560;9.708;2023-11-19T12:45:27;3.53;;;2.58;;
31782;SDS011;18351;47.560;9.708;2023-11-19T12:48:06;3.60;;;2.50;;
31782;SDS011;18351;47.560;9.708;2023-11-19T12:50:51;3.17;;;2.20;;
31782;SDS011;18351;47.560;9.708;2023-11-19T12:53:18;4.07;;;2.85;;
31782;SDS011;18351;47.560;9.708;2023-11-19T12:55:44;3.60;;;2.58;;
31782;SDS011;18351;47.560;9.708;2023-11-19T12:58:09;3.75;;;2.85;;
31782;SDS011;18351;47.560;9.708;2023-11-19T13:00:35;6.13;;;3.90;;
31782;SDS011;18351;47.560;9.708;2023-11-19T13:03:01;4.03;;;3.10;;
31782;SDS011;18351;47.560;9.708;2023-11-19T13:05:30;4.60;;;3.00;;
31782;SDS011;18351;47.560;9.708;2023-11-19T13:07:58;5.00;;;2.88;;
31782;SDS011;18351;47.560;9.708;2023-11-19T13:10:28;4.05;;;2.83;;
31782;SDS011;18351;47.560;9.708;2023-11-19T13:13:07;4.05;;;2.60;;
31782;SDS011;18351;47.560;9.708;2023-11-19T13:15:33;3.15;;;2.55;;
31782;SDS011;18351;47.560;9.708;2023-11-19T13:18:00;7.72;;;3.38;;
31782;SDS011;18351;47.560;9.708;2023-11-19T13:20:27;5.63;;;3.47;;
31782;SDS011;18351;47.560;9.708;2023-11-19T13:22:53;7.75;;;4.13;;
31782;SDS011;18351;47.560;9.708;2023-11-19T13:25:29;4.82;;;3.72;;
31782;SDS011;18351;47.560;9.708;2023-11-19T13:27:56;4.32;;;2.95;;
31782;SDS011;18351;47.560;9.708;2023-11-19T13:30:23;6.03;;;2.83;;
31782;SDS011;18351;47.560;9.708;2023-11-19T13:32:49;2.75;;;2.33;;
31782;SDS011;18351;47.560;9.708;2023-11-19T13:35:15;4.80;;;2.67;;
31782;SDS011;18351;47.560;9.708;2023-11-19T13:37:44;2.50;;;2.10;;
31782;SDS011;18351;47.560;9.708;2023-11-19T13:40:11;2.85;;;2.40;;
31782;SDS011;18351;47.560;9.708;2023-11-19T13:42:39;2.70;;;2.13;;
31782;SDS011;18351;47.560;9.708;2023-11-19T13:45:07;3.63;;;2.42;;
31782;SDS011;18351;47.560;9.708;2023-11-19T13:47:36;2.20;;;2.00;;
31782;SDS011;18351;47.560;9.708;2023-11-19T13:50:06;3.67;;;2.47;;
31782;SDS011;18351;47.560;9.708;2023-11-19T13:52:35;2.10;;;1.90;;
31782;SDS011;18351;47.560;9.708;2023-11-19T13:55:03;2.75;;;2.03;;
31782;SDS011;18351;47.560;9.708;2023-11-19T13:57:31;3.72;;;2.33;;
31782;SDS011;18351;47.560;9.708;2023-11-19T13:59:57;4.18;;;2.08;;
31782;SDS011;18351;47.560;9.708;2023-11-19T14:02:22;5.82;;;2.10;;
31782;SDS011;18351;47.560;9.708;2023-11-19T14:04:48;3.17;;;2.22;;
31782;SDS011;18351;47.560;9.708;2023-11-19T14:07:13;3.92;;;2.30;;
31782;SDS011;18351;47.560;9.708;2023-11-19T14:09:41;3.83;;;2.97;;
31782;SDS011;18351;47.560;9.708;2023-11-19T14:12:07;3.33;;;2.60;;
31782;SDS011;18351;47.560;9.708;2023-11-19T14:14:34;7.05;;;3.60;;
31782;SDS011;18351;47.560;9.708;2023-11-19T14:17:01;6.15;;;4.00;;
31782;SDS011;18351;47.560;9.708;2023-11-19T14:19:28;4.43;;;3.15;;
31782;SDS011;18351;47.560;9.708;2023-11-19T14:21:53;3.53;;;3.13;;
31782;SDS011;18351;47.560;9.708;2023-11-19T14:24:19;20.15;;;10.20;;
31782;SDS011;18351;47.560;9.708;2023-11-19T14:26:45;28.83;;;14.65;;
31782;SDS011;18351;47.560;9.708;2023-11-19T14:29:12;13.30;;;7.57;;
31782;SDS011;18351;47.560;9.708;2023-11-19T14:31:37;18.27;;;9.23;;
31782;SDS011;18351;47.560;9.708;2023-11-19T14:34:04;13.55;;;7.15;;
31782;SDS011;18351;47.560;9.708;2023-11-19T14:36:30;18.52;;;10.80;;
31782;SDS011;18351;47.560;9.708;2023-11-19T14:38:55;14.90;;;9.80;;
31782;SDS011;18351;47.560;9.708;2023-11-19T14:41:23;9.43;;;5.97;;
31782;SDS011;18351;47.560;9.708;2023-11-19T14:43:49;8.27;;;4.85;;
31782;SDS011;18351;47.560;9.708;2023-11-19T14:46:15;5.20;;;3.97;;
31782;SDS011;18351;47.560;9.708;2023-11-19T14:48:40;6.00;;;3.65;;
31782;SDS011;18351;47.560;9.708;2023-11-19T14:51:06;8.70;;;3.67;;
31782;SDS011;18351;47.560;9.708;2023-11-19T14:53:32;3.30;;;2.80;;
31782;SDS011;18351;47.560;9.708;2023-11-19T14:55:58;3.35;;;2.70;;
31782;SDS011;18351;47.560;9.708;2023-11-19T14:58:23;4.88;;;3.05;;
31782;SDS011;18351;47.560;9.708;2023-11-19T15:00:50;3.88;;;2.75;;
31782;SDS011;18351;47.560;9.708;2023-11-19T15:03:16;2.88;;;2.33;;
31782;SDS011;18351;47.560;9.708;2023-11-19T15:05:44;5.15;;;3.83;;
31782;SDS011;18351;47.560;9.708;2023-11-19T15:08:11;5.82;;;4.32;;
31782;SDS011;18351;47.560;9.708;2023-11-19T15:10:37;5.65;;;4.22;;
31782;SDS011;18351;47.560;9.708;2023-11-19T15:13:02;29.35;;;15.93;;
31782;SDS011;18351;47.560;9.708;2023-11-19T15:15:28;14.95;;;8.85;;